createdAt,value
2022-11-07T00:02:00.198Z,4.33
2022-11-07T00:04:29.447Z,4.20
2022-11-07T00:07:00.905Z,6.23
2022-11-07T00:09:29.685Z,5.13
2022-11-07T00:11:58.257Z,4.83
2022-11-07T00:14:26.433Z,4.93
2022-11-07T00:16:54.975Z,4.43
2022-11-07T00:19:24.519Z,4.93
2022-11-07T00:21:53.626Z,5.00
2022-11-07T00:24:21.926Z,4.80
2022-11-07T00:26:50.119Z,5.17
2022-11-07T00:29:21.077Z,5.13
2022-11-07T00:31:51.017Z,4.17
2022-11-07T00:34:19.457Z,4.80
2022-11-07T00:36:49.022Z,4.53
2022-11-07T00:39:17.408Z,4.60
2022-11-07T00:41:48.465Z,4.57
2022-11-07T00:44:16.597Z,4.20
2022-11-07T00:46:44.748Z,5.40
2022-11-07T00:49:12.857Z,5.17
2022-11-07T00:51:41.471Z,5.53
2022-11-07T00:54:11.143Z,5.43
2022-11-07T00:56:39.388Z,4.93
2022-11-07T00:59:07.741Z,4.60
2022-11-07T01:01:36.763Z,5.47
2022-11-07T01:04:22.244Z,6.03
2022-11-07T01:06:50.440Z,5.40
2022-11-07T01:09:22.403Z,5.53
2022-11-07T01:11:51.181Z,4.83
2022-11-07T01:14:21.892Z,4.93
2022-11-07T01:16:53.490Z,5.43
2022-11-07T01:19:21.757Z,5.37
2022-11-07T01:21:50.128Z,6.13
2022-11-07T01:24:20.064Z,5.57
2022-11-07T01:26:49.154Z,5.53
2022-11-07T01:29:18.236Z,4.87
2022-11-07T01:31:47.037Z,5.00
2022-11-07T01:34:15.230Z,6.00
2022-11-07T01:36:43.367Z,5.23
2022-11-07T01:39:11.515Z,5.50
2022-11-07T01:41:42.231Z,5.63
2022-11-07T01:44:48.552Z,5.50
2022-11-07T01:47:17.456Z,6.23
2022-11-07T01:49:45.833Z,4.87
2022-11-07T01:52:18.573Z,5.83
2022-11-07T01:54:53.290Z,5.00
2022-11-07T01:57:26.979Z,5.17
2022-11-07T01:59:59.341Z,5.50
2022-11-07T02:02:33.355Z,5.03
2022-11-07T02:05:03.671Z,5.20
2022-11-07T02:07:41.501Z,5.30
2022-11-07T02:10:11.205Z,4.37
2022-11-07T02:12:41.943Z,4.77
2022-11-07T02:15:14.909Z,4.83
2022-11-07T02:17:43.532Z,3.83
2022-11-07T02:20:12.999Z,4.50
2022-11-07T02:22:50.650Z,3.50
2022-11-07T02:25:21.552Z,4.07
2022-11-07T02:27:54.946Z,4.37
2022-11-07T02:30:27.815Z,4.20
2022-11-07T02:32:56.020Z,4.07
2022-11-07T02:35:37.778Z,4.33
2022-11-07T02:38:11.330Z,3.63
2022-11-07T02:40:41.745Z,3.77
2022-11-07T02:43:13.663Z,4.27
2022-11-07T02:45:46.979Z,4.00
2022-11-07T02:48:16.360Z,4.13
2022-11-07T02:50:45.855Z,3.83
2022-11-07T02:53:14.422Z,4.47
2022-11-07T02:55:44.302Z,4.33
2022-11-07T02:58:12.347Z,3.20
2022-11-07T03:00:40.589Z,3.27
2022-11-07T03:03:08.897Z,3.93
2022-11-07T03:05:36.950Z,3.70
2022-11-07T03:08:05.346Z,3.50
2022-11-07T03:10:33.351Z,4.07
2022-11-07T03:13:03.232Z,3.77
2022-11-07T03:15:31.487Z,3.03
2022-11-07T03:17:59.967Z,3.13
2022-11-07T03:20:28.930Z,3.67
2022-11-07T03:22:57.098Z,2.70
2022-11-07T03:25:25.280Z,3.60
2022-11-07T03:27:53.272Z,4.20
2022-11-07T03:30:22.679Z,4.50
2022-11-07T03:32:53.021Z,4.13
2022-11-07T03:35:21.590Z,3.60
2022-11-07T03:37:51.025Z,3.00
2022-11-07T03:40:19.874Z,3.40
2022-11-07T03:42:48.541Z,3.50
2022-11-07T03:45:18.231Z,3.93
2022-11-07T03:47:51.084Z,3.20
2022-11-07T03:50:23.897Z,3.20
2022-11-07T03:52:52.164Z,3.43
2022-11-07T03:55:22.016Z,3.67
2022-11-07T03:57:50.272Z,3.30
2022-11-07T04:00:19.343Z,3.60
2022-11-07T04:02:49.191Z,3.83
2022-11-07T04:05:17.626Z,3.23
2022-11-07T04:07:46.099Z,3.40
2022-11-07T04:10:14.551Z,3.13
2022-11-07T04:13:14.544Z,3.10
2022-11-07T04:16:03.243Z,3.27
2022-11-07T04:18:33.226Z,3.80
2022-11-07T04:21:01.617Z,3.50
2022-11-07T04:23:30.017Z,3.33
2022-11-07T04:26:15.355Z,3.30
2022-11-07T04:28:43.540Z,3.77
2022-11-07T04:31:11.666Z,4.17
2022-11-07T04:33:41.498Z,3.57
2022-11-07T04:36:09.974Z,3.10
2022-11-07T04:38:38.162Z,3.17
2022-11-07T04:41:06.536Z,3.37
2022-11-07T04:43:34.552Z,3.10
2022-11-07T04:46:02.639Z,3.83
2022-11-07T04:48:30.796Z,3.17
2022-11-07T04:51:00.642Z,3.50
2022-11-07T04:53:28.680Z,3.37
2022-11-07T04:55:56.838Z,3.27
2022-11-07T04:58:24.845Z,3.67
2022-11-07T05:00:52.894Z,3.90
2022-11-07T05:03:20.935Z,3.07
2022-11-07T05:05:49.047Z,2.93
2022-11-07T05:08:18.565Z,3.20
2022-11-07T05:10:46.959Z,3.67
2022-11-07T05:13:15.263Z,3.37
2022-11-07T05:15:43.800Z,3.50
2022-11-07T05:18:12.662Z,4.07
2022-11-07T05:20:41.432Z,3.20
2022-11-07T05:23:15.885Z,3.23
2022-11-07T05:25:49.509Z,3.57
2022-11-07T05:28:25.676Z,3.20
2022-11-07T05:31:00.351Z,3.10
2022-11-07T05:33:31.999Z,3.93
2022-11-07T05:36:13.001Z,3.33
2022-11-07T05:38:43.363Z,3.10
2022-11-07T05:41:23.898Z,3.90
2022-11-07T05:43:52.203Z,3.10
2022-11-07T05:46:22.716Z,3.00
2022-11-07T05:48:59.620Z,2.83
2022-11-07T05:51:29.271Z,3.60
2022-11-07T05:57:06.353Z,3.60
2022-11-07T05:59:34.610Z,3.20
2022-11-07T06:02:03.015Z,3.80
2022-11-07T06:04:31.508Z,3.20
2022-11-07T06:06:59.678Z,2.80
2022-11-07T06:09:29.222Z,2.80
2022-11-07T06:11:58.149Z,3.17
2022-11-07T06:14:31.502Z,3.20
2022-11-07T06:16:59.689Z,3.70
2022-11-07T06:19:28.064Z,3.57
2022-11-07T06:21:56.408Z,3.20
2022-11-07T06:24:24.698Z,2.80
2022-11-07T06:26:54.384Z,2.63
2022-11-07T06:29:25.651Z,3.53
2022-11-07T06:31:57.549Z,2.97
2022-11-07T06:34:26.699Z,2.77
2022-11-07T06:37:02.544Z,3.00
2022-11-07T06:39:31.729Z,2.80
2022-11-07T06:42:00.888Z,2.97
2022-11-07T06:44:29.287Z,3.63
2022-11-07T06:46:58.841Z,3.07
2022-11-07T06:49:28.150Z,2.80
2022-11-07T06:51:57.545Z,3.03
2022-11-07T06:54:25.960Z,2.30
2022-11-07T06:56:54.816Z,2.73
2022-11-07T07:02:44.414Z,2.50
2022-11-07T07:05:17.071Z,3.20
2022-11-07T07:07:48.647Z,2.70
2022-11-07T07:10:17.507Z,2.53
2022-11-07T07:15:47.819Z,2.47
2022-11-07T07:18:21.570Z,2.83
2022-11-07T07:20:56.699Z,2.40
2022-11-07T07:23:26.813Z,2.90
2022-11-07T07:25:55.737Z,3.33
2022-11-07T07:28:27.540Z,3.60
2022-11-07T07:31:29.163Z,3.23
2022-11-07T07:34:09.091Z,3.20
2022-11-07T07:36:37.309Z,3.20
2022-11-07T07:39:08.686Z,3.27
2022-11-07T07:41:50.147Z,2.97
2022-11-07T07:44:18.291Z,2.40
2022-11-07T07:46:47.384Z,2.73
2022-11-07T07:49:17.720Z,2.70
2022-11-07T07:51:46.469Z,2.50
2022-11-07T07:54:26.508Z,2.23
2022-11-07T07:57:03.503Z,3.10
2022-11-07T07:59:33.139Z,2.37
2022-11-07T08:02:03.347Z,2.73
2022-11-07T08:04:33.477Z,2.53
2022-11-07T08:07:01.560Z,2.73
2022-11-07T08:09:31.844Z,2.60
2022-11-07T08:12:00.223Z,2.47
2022-11-07T08:14:28.358Z,4.00
2022-11-07T08:16:56.661Z,2.87
2022-11-07T08:19:25.270Z,3.70
2022-11-07T08:21:56.384Z,3.70
2022-11-07T08:24:24.892Z,2.83
2022-11-07T08:26:53.040Z,3.10
2022-11-07T08:29:21.363Z,3.57
2022-11-07T08:31:54.281Z,3.00
2022-11-07T08:34:23.662Z,3.93
2022-11-07T08:36:56.324Z,3.07
2022-11-07T08:39:26.774Z,2.97
2022-11-07T08:41:56.010Z,2.83
2022-11-07T08:44:26.871Z,3.63
2022-11-07T08:46:55.791Z,3.20
2022-11-07T08:49:24.040Z,3.70
2022-11-07T08:51:52.158Z,4.03
2022-11-07T08:54:26.436Z,4.10
2022-11-07T08:57:13.525Z,4.17
2022-11-07T08:59:57.340Z,3.17
2022-11-07T09:05:35.170Z,3.40
2022-11-07T09:08:03.700Z,5.03
2022-11-07T09:10:33.511Z,3.60
2022-11-07T09:13:01.860Z,4.57
2022-11-07T09:15:30.959Z,3.53
2022-11-07T09:18:05.871Z,3.90
2022-11-07T09:20:35.382Z,4.30
2022-11-07T09:23:04.703Z,4.00
2022-11-07T09:25:34.865Z,4.17
2022-11-07T09:28:04.315Z,3.50
2022-11-07T09:30:32.781Z,3.93
2022-11-07T09:33:01.917Z,3.73
2022-11-07T09:35:33.148Z,4.47
2022-11-07T09:38:02.236Z,4.63
2022-11-07T09:40:42.041Z,4.07
2022-11-07T09:43:30.012Z,4.20
2022-11-07T09:46:14.396Z,3.70
2022-11-07T09:48:53.944Z,3.83
2022-11-07T09:51:30.428Z,4.23
2022-11-07T09:54:11.082Z,3.20
2022-11-07T09:56:44.530Z,3.63
2022-11-07T09:59:24.805Z,3.50
2022-11-07T10:01:56.333Z,4.57
2022-11-07T10:04:32.401Z,4.13
2022-11-07T10:07:29.603Z,4.50
2022-11-07T10:10:15.205Z,3.27
2022-11-07T10:13:21.804Z,3.20
2022-11-07T10:16:01.083Z,3.07
2022-11-07T10:18:39.675Z,3.57
2022-11-07T10:24:33.907Z,3.00
2022-11-07T10:27:03.700Z,3.40
2022-11-07T10:29:44.750Z,3.23
2022-11-07T10:32:23.289Z,4.37
2022-11-07T10:35:00.571Z,3.13
2022-11-07T10:37:30.010Z,4.30
2022-11-07T10:39:59.023Z,3.63
2022-11-07T10:42:36.807Z,3.83
2022-11-07T10:45:17.465Z,3.60
2022-11-07T10:47:59.692Z,4.27
2022-11-07T10:50:43.664Z,3.40
2022-11-07T10:53:22.034Z,3.93
2022-11-07T10:56:06.204Z,4.07
2022-11-07T10:58:50.312Z,3.80
2022-11-07T11:02:24.235Z,4.00
2022-11-07T11:08:34.227Z,4.67
2022-11-07T11:17:52.133Z,3.87
2022-11-07T12:21:27.643Z,6.00
2022-11-07T12:24:08.752Z,6.10
2022-11-07T12:26:46.480Z,5.30
2022-11-07T12:29:25.484Z,6.33
2022-11-07T12:32:05.170Z,5.67
2022-11-07T12:34:48.676Z,6.13
2022-11-07T12:37:39.815Z,4.73
2022-11-07T12:40:29.185Z,5.23
2022-11-07T12:43:08.905Z,5.80
2022-11-07T12:45:50.205Z,5.93
2022-11-07T12:48:40.226Z,6.53
2022-11-07T12:51:17.574Z,6.00
2022-11-07T12:53:53.751Z,6.53
2022-11-07T12:56:26.735Z,5.80
2022-11-07T12:58:57.778Z,6.60
2022-11-07T13:01:38.933Z,5.00
2022-11-07T13:04:16.391Z,5.63
2022-11-07T13:06:54.198Z,5.77
2022-11-07T13:09:30.911Z,5.17
2022-11-07T13:12:07.994Z,5.97
2022-11-07T13:14:41.283Z,5.70
2022-11-07T13:17:21.833Z,5.77
2022-11-07T13:20:04.751Z,5.63
2022-11-07T13:22:36.652Z,6.23
2022-11-07T13:25:24.426Z,5.40
2022-11-07T13:28:26.563Z,5.53
2022-11-07T13:31:01.102Z,6.87
2022-11-07T13:33:33.432Z,6.30
2022-11-07T13:36:14.035Z,6.23
2022-11-07T13:38:50.211Z,5.53
2022-11-07T13:41:21.432Z,5.70
2022-11-07T13:43:56.742Z,6.30
2022-11-07T13:46:29.229Z,6.20
2022-11-07T13:48:59.854Z,5.87
2022-11-07T13:51:33.683Z,6.80
2022-11-07T13:54:12.698Z,5.13
2022-11-07T13:56:47.590Z,4.87
2022-11-07T13:59:33.906Z,5.97
2022-11-07T14:02:05.158Z,5.93
2022-11-07T14:04:40.518Z,6.10
2022-11-07T14:07:20.243Z,5.90
2022-11-07T14:09:56.408Z,5.47
2022-11-07T14:12:27.496Z,5.83
2022-11-07T14:14:59.921Z,5.77
2022-11-07T14:17:33.167Z,5.80
2022-11-07T14:20:08.605Z,4.67
2022-11-07T14:22:38.701Z,5.53
2022-11-07T14:25:22.400Z,5.33
2022-11-07T14:27:51.949Z,4.90
2022-11-07T14:30:22.187Z,5.80
2022-11-07T14:32:52.438Z,5.00
2022-11-07T14:35:23.661Z,5.70
2022-11-07T14:37:51.836Z,5.30
2022-11-07T14:40:20.494Z,4.90
2022-11-07T14:42:50.226Z,5.50
2022-11-07T14:45:39.455Z,5.00
2022-11-07T14:48:12.693Z,5.23
2022-11-07T14:50:41.337Z,5.00
2022-11-07T14:53:12.615Z,5.57
2022-11-07T14:55:46.904Z,5.33
2022-11-07T14:58:18.773Z,7.03
2022-11-07T15:00:56.048Z,4.80
2022-11-07T15:03:32.014Z,6.03
2022-11-07T15:06:00.344Z,5.57
2022-11-07T15:08:31.052Z,5.83
2022-11-07T15:11:07.927Z,5.30
2022-11-07T15:13:36.632Z,5.13
2022-11-07T15:16:09.609Z,5.43
2022-11-07T15:18:42.869Z,5.17
2022-11-07T15:21:28.798Z,5.40
2022-11-07T15:23:57.687Z,6.40
2022-11-07T15:26:34.988Z,5.47
2022-11-07T15:29:15.882Z,5.83
2022-11-07T15:31:50.259Z,5.43
2022-11-07T15:34:33.739Z,5.73
2022-11-07T15:37:12.190Z,5.27
2022-11-07T15:39:40.374Z,5.70
2022-11-07T15:42:08.973Z,5.53
2022-11-07T15:44:37.939Z,5.40
2022-11-07T15:47:20.787Z,6.33
2022-11-07T15:49:51.431Z,6.10
2022-11-07T15:52:20.309Z,5.13
2022-11-07T15:54:48.593Z,5.97
2022-11-07T15:57:16.873Z,5.27
2022-11-07T15:59:45.665Z,4.93
2022-11-07T16:02:18.717Z,5.63
2022-11-07T16:04:46.986Z,5.13
2022-11-07T16:07:19.006Z,5.43
2022-11-07T16:09:48.879Z,5.07
2022-11-07T16:12:18.880Z,5.27
2022-11-07T16:14:50.161Z,5.00
2022-11-07T16:17:22.395Z,5.10
2022-11-07T16:19:50.781Z,6.03
2022-11-07T16:22:19.072Z,4.70
2022-11-07T16:24:47.325Z,4.30
2022-11-07T16:27:19.003Z,5.13
2022-11-07T16:29:47.509Z,5.27
2022-11-07T16:32:18.363Z,3.87
2022-11-07T16:34:49.042Z,6.10
2022-11-07T16:37:17.246Z,5.17
2022-11-07T16:39:47.248Z,4.10
2022-11-07T16:42:16.880Z,6.27
2022-11-07T16:44:45.248Z,4.77
2022-11-07T16:47:16.296Z,4.83
2022-11-07T16:49:44.726Z,4.87
2022-11-07T16:52:16.329Z,4.67
2022-11-07T16:54:44.465Z,4.90
2022-11-07T16:57:14.884Z,5.00
2022-11-07T16:59:43.805Z,5.17
2022-11-07T17:02:20.717Z,5.67
2022-11-07T17:04:49.544Z,5.97
2022-11-07T17:07:20.201Z,5.07
2022-11-07T17:09:48.753Z,4.77
2022-11-07T17:12:21.870Z,5.27
2022-11-07T17:14:50.464Z,5.50
2022-11-07T17:17:20.250Z,5.53
2022-11-07T17:19:48.594Z,4.70
2022-11-07T17:22:22.170Z,4.83
2022-11-07T17:24:50.240Z,4.40
2022-11-07T17:27:23.899Z,5.20
2022-11-07T17:29:52.583Z,4.50
2022-11-07T17:32:21.087Z,4.63
2022-11-07T17:35:17.854Z,4.33
2022-11-07T17:37:43.465Z,7.67
2022-11-07T17:40:19.117Z,5.07
2022-11-07T17:42:47.131Z,5.67
2022-11-07T17:45:16.000Z,6.53
2022-11-07T17:47:44.972Z,6.00
2022-11-07T17:50:15.969Z,5.63
2022-11-07T17:52:45.488Z,5.43
2022-11-07T17:55:15.651Z,4.53
2022-11-07T17:57:55.645Z,6.27
2022-11-07T18:00:27.415Z,6.03
2022-11-07T18:02:57.707Z,5.03
2022-11-07T18:05:32.877Z,6.07
2022-11-07T18:08:07.107Z,5.77
2022-11-07T18:10:35.748Z,5.63
2022-11-07T18:13:03.965Z,5.07
2022-11-07T18:15:33.836Z,5.77
2022-11-07T18:18:06.802Z,6.33
2022-11-07T18:20:37.980Z,5.17
2022-11-07T18:23:07.533Z,5.60
2022-11-07T18:25:38.999Z,4.90
2022-11-07T18:28:07.469Z,5.60
2022-11-07T18:30:36.492Z,5.33
2022-11-07T18:33:04.684Z,5.47
2022-11-07T18:35:32.852Z,4.43
2022-11-07T18:38:03.640Z,6.43
2022-11-07T18:40:34.228Z,5.47
2022-11-07T18:43:02.290Z,5.67
2022-11-07T18:45:36.317Z,6.90
2022-11-07T18:48:04.878Z,4.73
2022-11-07T18:50:41.415Z,4.80
2022-11-07T18:53:15.102Z,5.40
2022-11-07T18:55:44.728Z,5.43
2022-11-07T18:58:13.107Z,5.40
2022-11-07T19:00:41.583Z,5.93
2022-11-07T19:03:09.697Z,4.47
2022-11-07T19:05:41.140Z,4.90
2022-11-07T19:08:09.781Z,4.87
2022-11-07T19:10:37.986Z,5.20
2022-11-07T19:13:08.632Z,5.23
2022-11-07T19:15:52.264Z,4.83
2022-11-07T19:18:38.473Z,5.00
2022-11-07T19:21:07.066Z,4.87
2022-11-07T19:23:38.091Z,5.67
2022-11-07T19:26:06.979Z,5.33
2022-11-07T19:28:37.602Z,5.03
2022-11-07T19:31:06.033Z,4.57
2022-11-07T19:33:34.371Z,4.40
2022-11-07T19:36:04.948Z,5.00
2022-11-07T19:38:33.638Z,4.70
2022-11-07T19:41:04.572Z,4.63
2022-11-07T19:46:30.653Z,3.57
2022-11-07T19:48:58.682Z,4.07
2022-11-07T19:51:27.270Z,3.50
2022-11-07T19:53:56.064Z,3.27
2022-11-07T19:56:25.076Z,3.03
2022-11-07T19:58:54.451Z,3.80
2022-11-07T20:01:25.384Z,4.10
2022-11-07T20:03:56.667Z,4.07
2022-11-07T20:06:27.222Z,3.70
2022-11-07T20:08:55.243Z,3.97
2022-11-07T20:11:25.436Z,3.70
2022-11-07T20:13:58.666Z,4.40
2022-11-07T20:16:29.981Z,4.47
2022-11-07T20:18:59.746Z,4.63
2022-11-07T20:21:29.227Z,5.23
2022-11-07T20:23:59.553Z,5.37
2022-11-07T20:26:29.812Z,5.10
2022-11-07T20:28:58.678Z,4.83
2022-11-07T20:31:29.511Z,4.67
2022-11-07T20:34:00.397Z,5.20
2022-11-07T20:36:31.334Z,5.33
2022-11-07T20:39:00.185Z,4.97
2022-11-07T20:41:33.088Z,4.80
2022-11-07T20:44:06.122Z,4.60
2022-11-07T20:46:35.999Z,4.87
2022-11-07T20:49:09.124Z,4.93
2022-11-07T20:51:38.285Z,4.60
2022-11-07T20:54:06.663Z,3.90
2022-11-07T20:56:35.423Z,4.40
2022-11-07T20:59:03.534Z,4.80
2022-11-07T21:01:36.420Z,3.90
2022-11-07T21:04:08.086Z,4.10
2022-11-07T21:06:37.407Z,3.10
2022-11-07T21:09:05.629Z,3.70
2022-11-07T21:11:35.082Z,3.03
2022-11-07T21:14:03.183Z,3.93
2022-11-07T21:16:34.712Z,3.50
2022-11-07T21:19:05.185Z,3.10
2022-11-07T21:21:35.817Z,3.83
2022-11-07T21:24:04.161Z,4.83
2022-11-07T21:26:34.397Z,4.47
2022-11-07T21:29:06.148Z,3.77
2022-11-07T21:31:35.155Z,4.27
2022-11-07T21:34:03.212Z,4.57
2022-11-07T21:36:32.605Z,4.03
2022-11-07T21:39:03.146Z,3.60
2022-11-07T21:41:32.271Z,3.43
2022-11-07T21:44:00.520Z,4.60
2022-11-07T21:46:30.518Z,4.03
2022-11-07T21:48:59.719Z,4.83
2022-11-07T21:51:29.906Z,5.40
2022-11-07T21:53:59.482Z,4.53
2022-11-07T21:56:30.984Z,3.77
2022-11-07T21:59:01.021Z,4.30
2022-11-07T22:01:35.351Z,4.87
2022-11-07T22:04:07.332Z,4.10
2022-11-07T22:06:37.504Z,3.70
2022-11-07T22:09:06.825Z,3.37
2022-11-07T22:11:36.421Z,3.53
2022-11-07T22:14:05.009Z,3.63
2022-11-07T22:16:33.816Z,4.17
2022-11-07T22:19:02.248Z,3.00
2022-11-07T22:21:31.680Z,3.50
2022-11-07T22:23:59.965Z,2.83
2022-11-07T22:26:29.541Z,3.07
2022-11-07T22:28:59.550Z,1.47
2022-11-07T22:31:30.342Z,3.40
2022-11-07T22:34:01.356Z,3.07
2022-11-07T22:36:30.161Z,3.27
2022-11-07T22:38:59.074Z,1.63
2022-11-07T22:41:29.278Z,1.70
2022-11-07T22:43:59.279Z,1.70
2022-11-07T22:46:28.713Z,1.47
2022-11-07T22:48:57.594Z,1.80
2022-11-07T22:51:28.813Z,1.00
2022-11-07T22:53:58.237Z,0.80
2022-11-07T22:56:27.181Z,1.10
2022-11-07T22:58:55.571Z,1.20
2022-11-07T23:01:26.825Z,1.23
2022-11-07T23:03:55.784Z,1.30
2022-11-07T23:06:25.219Z,1.40
2022-11-07T23:08:54.131Z,1.30
2022-11-07T23:14:14.013Z,0.90
2022-11-07T23:16:45.748Z,1.70
2022-11-07T23:19:15.580Z,1.00
2022-11-07T23:21:43.872Z,1.20
2022-11-07T23:24:12.139Z,1.20
2022-11-07T23:26:40.515Z,1.20
2022-11-07T23:29:11.803Z,1.17
2022-11-07T23:31:40.349Z,1.40
2022-11-07T23:34:09.954Z,1.13
2022-11-07T23:36:38.159Z,1.50
2022-11-07T23:39:07.523Z,1.13
2022-11-07T23:41:35.813Z,1.13
2022-11-07T23:44:04.168Z,1.20
2022-11-07T23:46:49.820Z,1.27
2022-11-07T23:49:52.195Z,1.07
2022-11-07T23:52:20.625Z,1.23
2022-11-07T23:55:05.799Z,1.00
2022-11-07T23:57:58.351Z,0.90
